createdAt,value
2018-05-09T00:00:38.263Z,4.83
2018-05-09T00:03:05.741Z,4.90
2018-05-09T00:05:33.223Z,5.40
2018-05-09T00:08:00.696Z,5.07
2018-05-09T00:10:28.281Z,5.30
2018-05-09T00:12:56.542Z,5.43
2018-05-09T00:15:24.027Z,5.93
2018-05-09T00:17:51.548Z,5.80
2018-05-09T00:20:19.050Z,5.77
2018-05-09T00:22:46.544Z,5.70
2018-05-09T00:25:14.031Z,5.77
2018-05-09T00:27:41.536Z,5.80
2018-05-09T00:30:09.006Z,5.73
2018-05-09T00:32:36.497Z,4.60
2018-05-09T00:35:03.956Z,4.87
2018-05-09T00:37:31.436Z,4.80
2018-05-09T00:39:59.681Z,5.47
2018-05-09T00:42:28.687Z,4.50
2018-05-09T00:44:56.162Z,5.00
2018-05-09T00:47:24.426Z,5.13
2018-05-09T00:49:52.730Z,5.23
2018-05-09T00:52:20.224Z,4.83
2018-05-09T00:54:47.775Z,4.90
2018-05-09T00:57:15.275Z,5.10
2018-05-09T00:59:43.508Z,5.33
2018-05-09T01:02:10.997Z,4.67
2018-05-09T01:04:38.469Z,5.73
2018-05-09T01:07:06.723Z,5.13
2018-05-09T01:09:34.233Z,5.10
2018-05-09T01:12:01.731Z,5.20
2018-05-09T01:14:29.228Z,5.03
2018-05-09T01:16:57.488Z,5.07
2018-05-09T01:19:24.971Z,4.77
2018-05-09T01:21:52.469Z,5.13
2018-05-09T01:24:19.998Z,5.07
2018-05-09T01:26:48.470Z,4.57
2018-05-09T01:29:16.007Z,5.03
2018-05-09T01:31:44.256Z,4.97
2018-05-09T01:34:11.730Z,5.50
2018-05-09T01:36:39.332Z,4.93
2018-05-09T01:39:06.789Z,4.90
2018-05-09T01:41:34.319Z,5.03
2018-05-09T01:44:02.566Z,4.90
2018-05-09T01:46:30.051Z,5.10
2018-05-09T01:48:58.268Z,5.10
2018-05-09T01:51:25.751Z,4.83
2018-05-09T01:53:53.211Z,5.43
2018-05-09T01:56:20.691Z,5.47
2018-05-09T01:58:48.943Z,4.97
2018-05-09T02:01:16.524Z,5.17
2018-05-09T02:03:44.754Z,5.20
2018-05-09T02:06:12.353Z,5.27
2018-05-09T02:08:40.533Z,4.93
2018-05-09T02:11:09.471Z,5.50
2018-05-09T02:13:36.935Z,5.00
2018-05-09T02:16:04.430Z,5.10
2018-05-09T02:18:31.889Z,4.97
2018-05-09T02:20:59.403Z,5.30
2018-05-09T02:23:26.879Z,5.23
2018-05-09T02:25:54.365Z,5.30
2018-05-09T02:28:22.592Z,5.20
2018-05-09T02:30:50.072Z,5.30
2018-05-09T02:33:17.532Z,5.13
2018-05-09T02:35:44.988Z,5.00
2018-05-09T02:38:12.468Z,5.40
2018-05-09T02:40:40.717Z,5.07
2018-05-09T02:43:08.304Z,4.77
2018-05-09T02:45:36.735Z,4.90
2018-05-09T02:48:04.212Z,5.27
2018-05-09T02:50:31.695Z,5.57
2018-05-09T02:52:59.364Z,5.00
2018-05-09T02:55:28.457Z,5.13
2018-05-09T02:57:56.715Z,5.93
2018-05-09T03:00:24.275Z,5.20
2018-05-09T03:02:51.891Z,5.03
2018-05-09T03:05:19.352Z,4.87
2018-05-09T03:07:46.983Z,4.97
2018-05-09T03:10:15.223Z,5.03
2018-05-09T03:12:42.876Z,4.90
2018-05-09T03:15:10.364Z,4.90
2018-05-09T03:17:38.708Z,5.00
2018-05-09T03:20:06.170Z,4.60
2018-05-09T03:22:33.644Z,4.20
2018-05-09T03:25:01.114Z,5.10
2018-05-09T03:27:29.382Z,4.90
2018-05-09T03:29:56.980Z,4.90
2018-05-09T03:32:24.452Z,4.83
2018-05-09T03:34:51.912Z,4.70
2018-05-09T03:37:19.400Z,4.90
2018-05-09T03:39:46.863Z,4.50
2018-05-09T03:42:14.356Z,5.17
2018-05-09T03:44:41.909Z,4.60
2018-05-09T03:47:10.207Z,5.00
2018-05-09T03:49:37.695Z,4.60
2018-05-09T03:52:05.187Z,5.33
2018-05-09T03:54:33.432Z,4.53
2018-05-09T03:57:00.910Z,5.27
2018-05-09T03:59:28.472Z,4.50
2018-05-09T04:02:08.776Z,4.43
2018-05-09T04:04:48.207Z,4.73
2018-05-09T04:07:27.748Z,5.20
2018-05-09T04:09:56.000Z,5.10
2018-05-09T04:12:24.262Z,4.23
2018-05-09T04:14:51.741Z,4.53
2018-05-09T04:17:19.995Z,4.17
2018-05-09T04:19:47.454Z,4.57
2018-05-09T04:22:15.736Z,4.30
2018-05-09T04:24:43.982Z,4.60
2018-05-09T04:27:11.464Z,4.17
2018-05-09T04:29:39.740Z,5.23
2018-05-09T04:32:07.996Z,4.80
2018-05-09T04:34:35.459Z,4.13
2018-05-09T04:37:03.711Z,4.60
2018-05-09T04:39:31.188Z,4.60
2018-05-09T04:41:58.678Z,4.63
2018-05-09T04:44:26.908Z,4.70
2018-05-09T04:46:54.501Z,5.10
2018-05-09T04:49:22.739Z,5.37
2018-05-09T04:51:50.324Z,4.77
2018-05-09T04:54:17.887Z,4.37
2018-05-09T04:56:46.156Z,4.67
2018-05-09T04:59:13.638Z,4.60
2018-05-09T05:01:41.900Z,3.93
2018-05-09T05:04:10.184Z,4.37
2018-05-09T05:06:38.463Z,3.83
2018-05-09T05:09:05.974Z,4.00
2018-05-09T05:11:33.458Z,4.90
2018-05-09T05:14:00.933Z,4.60
2018-05-09T05:16:29.176Z,4.70
2018-05-09T05:18:56.662Z,4.77
2018-05-09T05:21:24.903Z,4.50
2018-05-09T05:23:52.394Z,5.00
2018-05-09T05:26:19.894Z,4.20
2018-05-09T05:28:47.460Z,4.33
2018-05-09T05:31:14.936Z,5.20
2018-05-09T05:33:42.451Z,4.47
2018-05-09T05:36:09.921Z,4.33
2018-05-09T05:38:37.434Z,4.90
2018-05-09T05:41:05.684Z,6.13
2018-05-09T05:43:33.176Z,6.53
2018-05-09T05:46:01.447Z,5.47
2018-05-09T05:48:29.753Z,8.00
2018-05-09T05:50:57.239Z,6.03
2018-05-09T05:53:24.851Z,4.97
2018-05-09T05:55:52.342Z,4.53
2018-05-09T05:58:19.865Z,3.87
2018-05-09T06:00:48.114Z,4.57
2018-05-09T06:03:15.591Z,3.87
2018-05-09T06:05:43.842Z,3.97
2018-05-09T06:08:11.331Z,4.10
2018-05-09T06:10:39.555Z,3.73
2018-05-09T06:13:07.064Z,4.20
2018-05-09T06:15:35.311Z,4.13
2018-05-09T06:18:02.809Z,3.83
2018-05-09T06:20:30.284Z,3.70
2018-05-09T06:22:57.784Z,4.10
2018-05-09T06:25:25.257Z,4.40
2018-05-09T06:27:52.750Z,4.00
2018-05-09T06:30:20.216Z,3.67
2018-05-09T06:32:47.772Z,3.77
2018-05-09T06:35:15.227Z,3.90
2018-05-09T06:37:42.818Z,3.73
2018-05-09T06:40:10.304Z,3.37
2018-05-09T06:42:37.773Z,4.17
2018-05-09T06:45:06.059Z,4.03
2018-05-09T06:47:33.520Z,3.97
2018-05-09T06:50:01.037Z,4.00
2018-05-09T06:52:28.508Z,3.80
2018-05-09T06:54:56.821Z,3.60
2018-05-09T06:57:25.055Z,4.00
2018-05-09T06:59:52.560Z,3.93
2018-05-09T07:02:20.065Z,4.13
2018-05-09T07:04:47.562Z,3.60
2018-05-09T07:07:15.059Z,3.57
2018-05-09T07:09:42.547Z,4.37
2018-05-09T07:12:10.024Z,4.13
2018-05-09T07:14:38.431Z,4.20
2018-05-09T07:17:05.903Z,4.40
2018-05-09T07:19:33.413Z,4.00
2018-05-09T07:22:01.664Z,4.07
2018-05-09T07:24:29.167Z,4.30
2018-05-09T07:26:56.701Z,3.83
2018-05-09T07:29:24.929Z,4.10
2018-05-09T07:31:52.417Z,3.93
2018-05-09T07:34:20.656Z,4.50
2018-05-09T07:36:48.299Z,4.20
2018-05-09T07:39:15.762Z,4.40
2018-05-09T07:41:43.239Z,4.00
2018-05-09T07:44:10.771Z,4.67
2018-05-09T07:46:38.269Z,3.80
2018-05-09T07:49:06.022Z,4.30
2018-05-09T07:51:33.527Z,4.40
2018-05-09T07:54:01.770Z,4.07
2018-05-09T07:56:29.249Z,4.10
2018-05-09T07:58:57.474Z,3.97
2018-05-09T08:01:24.961Z,3.90
2018-05-09T08:03:52.472Z,4.07
2018-05-09T08:06:20.767Z,3.87
2018-05-09T08:08:48.286Z,3.93
2018-05-09T08:11:16.549Z,4.57
2018-05-09T08:13:44.861Z,4.43
2018-05-09T08:16:12.336Z,3.90
2018-05-09T08:18:39.878Z,4.00
2018-05-09T08:21:07.363Z,4.17
2018-05-09T08:23:34.899Z,4.27
2018-05-09T08:26:02.399Z,4.40
2018-05-09T08:28:29.912Z,4.50
2018-05-09T08:30:57.401Z,4.37
2018-05-09T08:33:24.926Z,4.77
2018-05-09T08:35:53.212Z,4.40
2018-05-09T08:38:20.690Z,4.20
2018-05-09T08:40:48.317Z,4.60
2018-05-09T08:45:49.887Z,4.97
2018-05-09T08:48:17.363Z,5.27
2018-05-09T08:50:44.904Z,4.00
2018-05-09T08:53:12.393Z,3.87
2018-05-09T08:55:39.912Z,4.47
2018-05-09T08:58:07.386Z,4.13
2018-05-09T09:00:34.867Z,4.13
2018-05-09T09:03:02.339Z,4.27
2018-05-09T09:05:29.848Z,4.20
2018-05-09T09:07:57.408Z,4.10
2018-05-09T09:10:24.916Z,4.10
2018-05-09T09:12:52.502Z,3.93
2018-05-09T09:15:20.827Z,4.10
2018-05-09T09:17:49.008Z,4.03
2018-05-09T09:20:16.521Z,4.73
2018-05-09T09:22:43.998Z,4.20
2018-05-09T09:25:11.457Z,4.67
2018-05-09T09:27:38.980Z,4.20
2018-05-09T09:30:07.224Z,4.43
2018-05-09T09:32:34.722Z,3.60
2018-05-09T09:35:02.965Z,4.00
2018-05-09T09:37:30.459Z,3.93
2018-05-09T09:39:57.941Z,4.03
2018-05-09T09:42:25.419Z,4.43
2018-05-09T09:44:52.914Z,4.10
2018-05-09T09:47:21.186Z,3.87
2018-05-09T09:49:49.933Z,3.47
2018-05-09T09:52:17.418Z,3.70
2018-05-09T09:54:45.676Z,3.60
2018-05-09T09:57:13.171Z,3.23
2018-05-09T09:59:41.417Z,3.77
2018-05-09T10:02:08.949Z,3.63
2018-05-09T10:04:36.515Z,3.33
2018-05-09T10:07:04.726Z,4.30
2018-05-09T10:09:32.393Z,3.83
2018-05-09T10:12:00.674Z,15.13
2018-05-09T10:14:28.983Z,7.47
2018-05-09T10:16:56.463Z,4.50
2018-05-09T10:19:23.972Z,4.03
2018-05-09T10:21:51.547Z,3.60
2018-05-09T10:24:19.108Z,3.63
2018-05-09T10:26:46.608Z,3.90
2018-05-09T10:29:15.029Z,3.97
2018-05-09T10:31:43.295Z,3.87
2018-05-09T10:34:10.751Z,4.10
2018-05-09T10:36:38.997Z,3.90
2018-05-09T10:39:07.399Z,4.30
2018-05-09T10:41:34.873Z,4.13
2018-05-09T10:44:03.128Z,4.03
2018-05-09T10:46:30.652Z,3.87
2018-05-09T10:48:58.133Z,5.33
2018-05-09T10:51:25.623Z,3.63
2018-05-09T10:53:53.925Z,4.40
2018-05-09T10:56:21.419Z,3.90
2018-05-09T10:58:48.900Z,3.87
2018-05-09T11:01:17.151Z,4.30
2018-05-09T11:03:44.608Z,3.93
2018-05-09T11:06:12.094Z,4.23
2018-05-09T11:08:39.600Z,4.17
2018-05-09T11:11:07.150Z,8.60
2018-05-09T11:13:34.631Z,5.97
2018-05-09T11:16:02.161Z,13.90
2018-05-09T11:18:29.621Z,4.63
2018-05-09T11:20:57.796Z,4.03
2018-05-09T11:23:25.355Z,4.03
2018-05-09T11:25:52.872Z,4.40
2018-05-09T11:28:21.163Z,3.83
2018-05-09T11:30:49.402Z,4.50
2018-05-09T11:33:16.883Z,4.00
2018-05-09T11:35:45.132Z,3.90
2018-05-09T11:38:12.616Z,3.77
2018-05-09T11:40:40.860Z,5.00
2018-05-09T11:43:08.374Z,4.30
2018-05-09T11:45:35.840Z,4.37
2018-05-09T11:48:03.397Z,4.00
2018-05-09T11:50:30.871Z,4.60
2018-05-09T11:52:58.367Z,5.50
2018-05-09T11:55:26.667Z,4.03
2018-05-09T11:57:54.943Z,4.00
2018-05-09T12:00:23.187Z,4.43
2018-05-09T12:02:50.679Z,4.53
2018-05-09T12:05:18.216Z,4.10
2018-05-09T12:07:46.522Z,4.20
2018-05-09T12:10:13.989Z,4.67
2018-05-09T12:12:41.489Z,4.00
2018-05-09T12:15:08.961Z,3.97
2018-05-09T12:17:36.461Z,4.07
2018-05-09T12:20:03.932Z,4.37
2018-05-09T12:22:31.431Z,3.77
2018-05-09T12:24:58.947Z,4.20
2018-05-09T12:27:26.493Z,4.20
2018-05-09T12:29:53.976Z,4.37
2018-05-09T12:32:21.476Z,4.33
2018-05-09T12:34:49.742Z,4.73
2018-05-09T12:37:17.995Z,4.50
2018-05-09T12:39:45.482Z,4.60
2018-05-09T12:42:13.736Z,3.90
2018-05-09T12:44:41.293Z,4.40
2018-05-09T12:47:08.762Z,3.97
2018-05-09T12:49:36.995Z,4.70
2018-05-09T12:52:04.494Z,4.13
2018-05-09T12:54:32.034Z,4.10
2018-05-09T12:57:00.225Z,4.03
2018-05-09T12:59:28.465Z,3.83
2018-05-09T13:01:55.961Z,4.10
2018-05-09T13:04:23.463Z,4.50
2018-05-09T13:06:50.965Z,4.80
2018-05-09T13:09:18.480Z,4.00
2018-05-09T13:11:45.960Z,4.20
2018-05-09T13:14:13.456Z,5.63
2018-05-09T13:16:40.934Z,6.07
2018-05-09T13:19:09.208Z,4.40
2018-05-09T13:21:37.449Z,4.33
2018-05-09T13:24:05.683Z,4.57
2018-05-09T13:26:33.150Z,3.93
2018-05-09T13:29:01.635Z,4.23
2018-05-09T13:31:29.122Z,4.10
2018-05-09T13:33:56.605Z,4.27
2018-05-09T13:36:24.907Z,4.67
2018-05-09T13:38:52.399Z,4.37
2018-05-09T13:41:19.881Z,4.17
2018-05-09T13:43:47.378Z,3.97
2018-05-09T13:46:14.925Z,4.13
2018-05-09T13:48:43.933Z,4.43
2018-05-09T13:51:11.495Z,4.10
2018-05-09T13:53:39.134Z,4.30
2018-05-09T13:56:06.680Z,4.00
2018-05-09T13:58:34.961Z,3.77
2018-05-09T14:01:03.196Z,4.30
2018-05-09T14:03:30.715Z,4.00
2018-05-09T14:05:58.212Z,4.20
2018-05-09T14:08:25.708Z,4.30
2018-05-09T14:10:53.933Z,3.97
2018-05-09T14:13:21.413Z,4.90
2018-05-09T14:15:48.884Z,4.00
2018-05-09T14:18:17.877Z,4.23
2018-05-09T14:20:46.125Z,4.03
2018-05-09T14:23:13.659Z,4.30
2018-05-09T14:25:41.127Z,4.60
2018-05-09T14:28:08.663Z,4.20
2018-05-09T14:30:36.192Z,4.70
2018-05-09T14:33:04.441Z,3.80
2018-05-09T14:35:31.960Z,4.10
2018-05-09T14:37:59.450Z,3.72
2018-05-09T14:40:26.919Z,3.97
2018-05-09T14:42:54.417Z,3.75
2018-05-09T14:45:21.888Z,4.30
2018-05-09T14:47:49.427Z,3.85
2018-05-09T14:50:17.672Z,3.78
2018-05-09T14:52:45.188Z,4.10
2018-05-09T14:55:12.660Z,3.92
2018-05-09T14:57:40.151Z,4.10
2018-05-09T15:00:07.625Z,3.95
2018-05-09T15:02:35.108Z,3.70
2018-05-09T15:05:02.572Z,3.78
2018-05-09T15:07:30.200Z,3.37
2018-05-09T15:09:58.447Z,3.60
2018-05-09T15:12:25.917Z,3.37
2018-05-09T15:14:54.157Z,3.60
2018-05-09T15:17:21.632Z,4.20
2018-05-09T15:19:49.737Z,3.42
2018-05-09T15:22:18.040Z,3.60
2018-05-09T15:24:45.523Z,3.53
2018-05-09T15:27:13.015Z,3.67
2018-05-09T15:29:40.518Z,3.35
2018-05-09T15:32:07.993Z,3.37
2018-05-09T15:34:35.478Z,3.58
2018-05-09T15:37:02.950Z,3.40
2018-05-09T15:39:31.200Z,3.10
2018-05-09T15:41:58.680Z,3.20
2018-05-09T15:44:26.174Z,2.80
2018-05-09T15:46:53.650Z,3.45
2018-05-09T15:49:21.143Z,2.95
2018-05-09T15:51:48.614Z,3.00
2018-05-09T15:54:16.870Z,3.15
2018-05-09T15:56:44.470Z,3.30
2018-05-09T15:59:11.956Z,3.08
2018-05-09T16:01:40.325Z,3.33
2018-05-09T16:04:07.812Z,3.20
2018-05-09T16:06:35.301Z,3.53
2018-05-09T16:09:03.559Z,2.92
2018-05-09T16:11:31.475Z,3.10
2018-05-09T16:13:59.036Z,3.33
2018-05-09T16:16:26.515Z,3.20
2018-05-09T16:18:54.001Z,3.05
2018-05-09T16:21:21.527Z,3.42
2018-05-09T16:23:49.074Z,3.47
2018-05-09T16:26:16.580Z,3.60
2018-05-09T16:28:44.088Z,3.40
2018-05-09T16:31:11.561Z,3.45
2018-05-09T16:33:39.068Z,3.65
2018-05-09T16:36:07.318Z,3.33
2018-05-09T16:38:34.833Z,3.35
2018-05-09T16:41:02.308Z,3.15
2018-05-09T16:43:30.333Z,3.35
2018-05-09T16:45:58.842Z,3.87
2018-05-09T16:48:26.405Z,4.00
2018-05-09T16:50:53.872Z,3.87
2018-05-09T16:53:21.456Z,3.45
2018-05-09T16:55:48.836Z,3.67
2018-05-09T16:58:17.110Z,4.00
2018-05-09T17:00:44.580Z,4.15
2018-05-09T17:03:12.812Z,3.92
2018-05-09T17:05:40.337Z,3.87
2018-05-09T17:08:07.804Z,4.23
2018-05-09T17:10:35.299Z,4.27
2018-05-09T17:13:02.855Z,4.00
2018-05-09T17:15:30.365Z,3.63
2018-05-09T17:17:57.838Z,4.07
2018-05-09T17:20:25.333Z,4.23
2018-05-09T17:22:52.803Z,4.60
2018-05-09T17:25:20.319Z,4.00
2018-05-09T17:27:47.790Z,4.27
2018-05-09T17:30:15.405Z,4.13
2018-05-09T17:32:42.821Z,4.67
2018-05-09T17:35:10.325Z,4.13
2018-05-09T17:37:37.788Z,4.90
2018-05-09T17:40:05.304Z,5.10
2018-05-09T17:42:32.814Z,4.90
2018-05-09T17:45:01.043Z,5.17
2018-05-09T17:47:28.516Z,4.70
2018-05-09T17:49:56.015Z,4.53
2018-05-09T17:52:23.554Z,4.20
2018-05-09T17:54:51.113Z,4.90
2018-05-09T17:57:18.577Z,4.20
2018-05-09T17:59:46.079Z,4.47
2018-05-09T18:02:13.556Z,4.10
2018-05-09T18:04:41.800Z,4.20
2018-05-09T18:07:09.292Z,4.10
2018-05-09T18:09:37.562Z,3.80
2018-05-09T18:12:05.798Z,4.37
2018-05-09T18:14:33.285Z,4.20
2018-05-09T18:17:00.764Z,4.70
2018-05-09T18:19:28.246Z,4.67
2018-05-09T18:21:55.780Z,5.30
2018-05-09T18:24:23.277Z,5.60
2018-05-09T18:26:50.796Z,5.70
2018-05-09T18:29:19.048Z,5.73
2018-05-09T18:31:46.518Z,5.77
2018-05-09T18:34:14.785Z,5.47
2018-05-09T18:36:43.034Z,5.47
2018-05-09T18:39:10.555Z,6.00
2018-05-09T18:41:38.066Z,5.77
2018-05-09T18:44:05.575Z,6.47
2018-05-09T18:46:33.037Z,6.57
2018-05-09T18:49:00.539Z,6.70
2018-05-09T18:51:28.115Z,7.07
2018-05-09T18:56:31.152Z,7.53
2018-05-09T18:58:58.658Z,8.10
2018-05-09T19:01:26.127Z,8.67
2018-05-09T19:03:54.528Z,7.97
2018-05-09T19:06:22.119Z,8.90
2018-05-09T19:08:49.601Z,7.87
2018-05-09T19:11:17.869Z,7.77
2018-05-09T19:13:45.345Z,7.75
2018-05-09T19:16:12.929Z,8.00
2018-05-09T19:18:41.198Z,7.30
2018-05-09T19:21:09.455Z,8.00
2018-05-09T19:23:37.045Z,7.57
2018-05-09T19:26:05.303Z,7.73
2018-05-09T19:28:33.547Z,7.63
2018-05-09T19:31:01.041Z,7.80
2018-05-09T19:33:29.318Z,7.70
2018-05-09T19:35:57.560Z,8.10
2018-05-09T19:38:25.041Z,7.57
2018-05-09T19:40:53.377Z,7.47
2018-05-09T19:43:20.849Z,8.03
2018-05-09T19:45:48.358Z,8.20
2018-05-09T19:48:15.825Z,7.43
2018-05-09T19:50:43.320Z,8.23
2018-05-09T19:53:10.788Z,7.80
2018-05-09T19:55:38.290Z,8.10
2018-05-09T19:58:05.764Z,7.37
2018-05-09T20:00:33.243Z,7.50
2018-05-09T20:03:00.740Z,8.27
2018-05-09T20:05:29.009Z,7.80
2018-05-09T20:07:56.492Z,9.20
2018-05-09T20:10:23.971Z,9.13
2018-05-09T20:12:51.454Z,9.20
2018-05-09T20:15:18.971Z,8.83
2018-05-09T20:17:46.466Z,9.47
2018-05-09T20:20:13.976Z,10.23
2018-05-09T20:22:41.497Z,9.80
2018-05-09T20:25:08.984Z,9.50
2018-05-09T20:27:37.228Z,10.40
2018-05-09T20:30:10.379Z,9.93
2018-05-09T20:32:39.693Z,10.10
2018-05-09T20:35:07.152Z,9.83
2018-05-09T20:37:34.644Z,9.67
2018-05-09T20:40:02.174Z,9.40
2018-05-09T20:42:30.461Z,10.80
2018-05-09T20:44:58.114Z,9.53
2018-05-09T20:47:25.559Z,9.40
2018-05-09T20:49:53.808Z,8.77
2018-05-09T20:54:39.135Z,9.87
2018-05-09T20:57:07.368Z,9.73
2018-05-09T20:59:34.868Z,10.23
2018-05-09T21:02:03.116Z,10.77
2018-05-09T21:04:30.735Z,9.13
2018-05-09T21:06:58.250Z,10.40
2018-05-09T21:09:26.499Z,9.82
2018-05-09T21:12:05.796Z,9.17
2018-05-09T21:14:33.372Z,9.50
2018-05-09T21:17:01.640Z,9.80
2018-05-09T21:19:29.108Z,9.97
2018-05-09T21:21:56.589Z,9.50
2018-05-09T21:24:24.086Z,9.40
2018-05-09T21:26:52.332Z,9.30
2018-05-09T21:29:19.802Z,8.63
2018-05-09T21:31:48.062Z,8.30
2018-05-09T21:34:15.573Z,8.03
2018-05-09T21:36:43.104Z,7.70
2018-05-09T21:39:10.590Z,7.87
2018-05-09T21:41:38.083Z,8.40
2018-05-09T21:44:05.558Z,7.73
2018-05-09T21:46:33.128Z,7.77
2018-05-09T21:49:01.360Z,8.03
2018-05-09T21:51:28.846Z,7.53
2018-05-09T21:53:56.344Z,7.80
2018-05-09T21:56:23.865Z,7.50
2018-05-09T21:58:52.180Z,8.27
2018-05-09T22:01:23.459Z,8.30
2018-05-09T22:03:51.063Z,8.40
2018-05-09T22:06:19.303Z,8.03
2018-05-09T22:08:46.799Z,7.40
2018-05-09T22:11:15.078Z,7.10
2018-05-09T22:13:42.655Z,6.93
2018-05-09T22:16:10.141Z,7.70
2018-05-09T22:18:37.627Z,7.17
2018-05-09T22:21:05.167Z,6.47
2018-05-09T22:23:32.664Z,6.17
2018-05-09T22:26:00.985Z,6.80
2018-05-09T22:28:28.464Z,6.10
2018-05-09T22:30:55.961Z,6.20
2018-05-09T22:33:24.203Z,6.23
2018-05-09T22:35:51.704Z,6.60
2018-05-09T22:38:19.193Z,8.20
2018-05-09T22:40:46.699Z,10.47
2018-05-09T22:43:14.951Z,9.40
2018-05-09T22:45:42.438Z,6.77
2018-05-09T22:48:10.837Z,7.40
2018-05-09T22:50:38.359Z,7.47
2018-05-09T22:53:05.855Z,7.13
2018-05-09T22:55:33.335Z,6.53
2018-05-09T22:58:00.796Z,6.50
2018-05-09T23:00:28.530Z,6.13
2018-05-09T23:02:56.024Z,6.97
2018-05-09T23:05:23.514Z,6.80
2018-05-09T23:07:51.765Z,6.90
2018-05-09T23:10:20.068Z,7.73
2018-05-09T23:12:47.530Z,7.73
2018-05-09T23:15:15.771Z,7.13
2018-05-09T23:17:43.258Z,7.33
2018-05-09T23:20:11.491Z,7.30
2018-05-09T23:22:38.984Z,7.03
2018-05-09T23:25:07.255Z,7.33
2018-05-09T23:27:34.771Z,6.70
2018-05-09T23:30:02.455Z,6.73
2018-05-09T23:32:30.125Z,6.60
2018-05-09T23:34:57.636Z,6.43
2018-05-09T23:37:25.161Z,6.93
2018-05-09T23:39:53.409Z,7.33
2018-05-09T23:42:20.925Z,6.43
2018-05-09T23:44:48.404Z,6.73
2018-05-09T23:47:15.904Z,6.93
2018-05-09T23:49:43.414Z,6.90
2018-05-09T23:52:11.007Z,7.20
2018-05-09T23:54:38.483Z,7.00
2018-05-09T23:57:06.778Z,7.37
2018-05-09T23:59:34.255Z,6.40
